createdAt,value
2022-09-02T00:01:13.157Z,74.15
2022-09-02T00:03:39.960Z,74.12
2022-09-02T00:06:06.650Z,73.84
2022-09-02T00:08:33.510Z,74.03
2022-09-02T00:11:01.333Z,74.09
2022-09-02T00:13:29.398Z,73.96
2022-09-02T00:15:56.661Z,74.00
2022-09-02T00:18:25.018Z,74.32
2022-09-02T00:20:51.923Z,74.57
2022-09-02T00:23:19.748Z,74.60
2022-09-02T00:25:46.984Z,74.65
2022-09-02T00:28:15.262Z,74.99
2022-09-02T00:30:42.857Z,74.78
2022-09-02T00:33:10.998Z,74.58
2022-09-02T00:35:37.597Z,74.55
2022-09-02T00:38:05.384Z,74.55
2022-09-02T00:40:33.319Z,74.98
2022-09-02T00:43:00.221Z,74.90
2022-09-02T00:45:27.092Z,74.91
2022-09-02T00:47:53.669Z,74.74
2022-09-02T00:50:24.369Z,74.74
2022-09-02T00:52:56.586Z,74.68
2022-09-02T00:55:27.689Z,75.25
2022-09-02T00:58:20.871Z,75.13
2022-09-02T01:00:52.553Z,75.38
2022-09-02T01:03:21.955Z,75.28
2022-09-02T01:05:50.719Z,75.61
2022-09-02T01:08:21.158Z,75.49
2022-09-02T01:10:48.679Z,75.56
2022-09-02T01:13:20.321Z,75.55
2022-09-02T01:15:55.124Z,75.13
2022-09-02T01:18:28.949Z,75.32
2022-09-02T01:20:57.402Z,75.09
2022-09-02T01:23:24.132Z,75.07
2022-09-02T01:25:52.771Z,75.54
2022-09-02T01:28:19.933Z,75.82
2022-09-02T01:30:50.438Z,76.03
2022-09-02T01:33:18.743Z,75.72
2022-09-02T01:35:45.443Z,76.12
2022-09-02T01:38:12.066Z,75.75
2022-09-02T01:40:38.924Z,75.72
2022-09-02T01:43:14.957Z,75.79
2022-09-02T01:45:44.130Z,76.27
2022-09-02T01:48:11.354Z,76.08
2022-09-02T01:50:45.082Z,75.85
2022-09-02T01:53:14.473Z,76.58
2022-09-02T01:55:41.787Z,76.25
2022-09-02T01:58:08.605Z,76.42
2022-09-02T02:00:35.361Z,76.67
2022-09-02T02:03:02.515Z,76.65
2022-09-02T02:05:29.670Z,76.79
2022-09-02T02:07:56.789Z,76.85
2022-09-02T02:10:23.552Z,77.18
2022-09-02T02:12:51.538Z,76.97
2022-09-02T02:15:20.437Z,77.32
2022-09-02T02:17:47.304Z,77.24
2022-09-02T02:20:16.101Z,77.24
2022-09-02T02:22:43.896Z,76.94
2022-09-02T02:25:11.835Z,76.86
2022-09-02T02:27:38.366Z,76.69
2022-09-02T02:30:07.812Z,76.76
2022-09-02T02:32:35.940Z,76.43
2022-09-02T02:35:03.312Z,76.90
2022-09-02T02:37:29.831Z,77.01
2022-09-02T02:39:57.535Z,77.08
2022-09-02T02:42:24.182Z,77.27
2022-09-02T02:44:51.173Z,77.04
2022-09-02T02:47:18.152Z,77.25
2022-09-02T02:49:44.874Z,77.44
2022-09-02T02:52:12.560Z,77.22
2022-09-02T02:54:39.827Z,77.37
2022-09-02T02:57:06.855Z,76.98
2022-09-02T02:59:33.605Z,77.26
2022-09-02T03:02:00.725Z,77.07
2022-09-02T03:04:27.369Z,77.21
2022-09-02T03:06:53.997Z,77.18
2022-09-02T03:09:20.594Z,77.43
2022-09-02T03:11:48.013Z,77.46
2022-09-02T03:14:14.697Z,77.37
2022-09-02T03:16:41.760Z,77.66
2022-09-02T03:19:08.405Z,77.64
2022-09-02T03:21:39.021Z,77.54
2022-09-02T03:24:06.594Z,77.65
2022-09-02T03:26:33.364Z,77.28
2022-09-02T03:28:59.985Z,77.68
2022-09-02T03:31:28.538Z,78.02
2022-09-02T03:33:55.758Z,77.54
2022-09-02T03:36:34.930Z,77.19
2022-09-02T03:39:03.276Z,77.91
2022-09-02T03:41:29.950Z,78.07
2022-09-02T03:43:57.647Z,78.08
2022-09-02T03:46:24.694Z,78.25
2022-09-02T03:48:51.835Z,77.98
2022-09-02T03:51:20.667Z,77.92
2022-09-02T03:53:47.385Z,78.37
2022-09-02T03:56:15.455Z,78.15
2022-09-02T03:58:44.390Z,78.02
2022-09-02T04:01:16.618Z,77.87
2022-09-02T04:03:44.468Z,77.97
2022-09-02T04:06:12.951Z,77.86
2022-09-02T04:08:41.645Z,78.43
2022-09-02T04:11:09.973Z,78.37
2022-09-02T04:13:37.086Z,78.76
2022-09-02T04:16:10.629Z,78.95
2022-09-02T04:18:37.826Z,79.17
2022-09-02T04:21:04.582Z,78.96
2022-09-02T04:23:32.567Z,79.16
2022-09-02T04:26:03.261Z,79.14
2022-09-02T04:28:29.774Z,79.53
2022-09-02T04:30:56.293Z,79.27
2022-09-02T04:33:22.928Z,79.17
2022-09-02T04:35:49.577Z,79.68
2022-09-02T04:38:16.843Z,79.12
2022-09-02T04:40:45.672Z,79.26
2022-09-02T04:43:13.411Z,79.35
2022-09-02T04:45:44.932Z,79.19
2022-09-02T04:48:12.218Z,79.42
2022-09-02T04:50:40.618Z,79.34
2022-09-02T04:53:07.455Z,79.51
2022-09-02T04:55:34.695Z,79.63
2022-09-02T04:58:01.765Z,79.60
2022-09-02T05:00:28.309Z,79.30
2022-09-02T05:02:55.072Z,79.42
2022-09-02T05:05:21.898Z,79.40
2022-09-02T05:07:48.493Z,79.48
2022-09-02T05:10:16.449Z,79.25
2022-09-02T05:12:43.790Z,79.33
2022-09-02T05:15:12.234Z,79.48
2022-09-02T05:17:39.719Z,79.34
2022-09-02T05:20:08.302Z,79.56
2022-09-02T05:22:36.037Z,79.46
2022-09-02T05:25:07.485Z,79.24
2022-09-02T05:27:34.146Z,79.46
2022-09-02T05:30:00.639Z,79.59
2022-09-02T05:32:27.841Z,79.71
2022-09-02T05:34:56.044Z,79.94
2022-09-02T05:37:24.570Z,79.57
2022-09-02T05:39:52.414Z,80.04
2022-09-02T05:42:20.661Z,80.11
2022-09-02T05:44:47.494Z,79.38
2022-09-02T05:47:14.038Z,79.81
2022-09-02T05:49:40.513Z,79.65
2022-09-02T05:52:10.236Z,79.78
2022-09-02T05:54:38.290Z,79.37
2022-09-02T05:57:09.256Z,79.05
2022-09-02T05:59:40.053Z,79.03
2022-09-02T06:02:07.200Z,78.88
2022-09-02T06:04:41.510Z,78.72
2022-09-02T06:07:08.086Z,78.96
2022-09-02T06:09:38.365Z,78.78
2022-09-02T06:12:05.157Z,78.88
2022-09-02T06:14:31.907Z,78.32
2022-09-02T06:16:59.446Z,78.35
2022-09-02T06:19:28.917Z,77.83
2022-09-02T06:21:56.787Z,77.85
2022-09-02T06:24:23.391Z,78.21
2022-09-02T06:26:50.393Z,77.78
2022-09-02T06:29:24.451Z,77.30
2022-09-02T06:31:51.724Z,77.60
2022-09-02T06:34:21.669Z,77.26
2022-09-02T06:36:50.664Z,77.36
2022-09-02T06:39:20.274Z,76.65
2022-09-02T06:41:49.002Z,76.34
2022-09-02T06:44:17.212Z,75.71
2022-09-02T06:46:47.814Z,75.32
2022-09-02T06:49:16.443Z,75.09
2022-09-02T06:51:46.089Z,74.98
2022-09-02T06:54:15.866Z,75.18
2022-09-02T06:56:49.095Z,75.11
2022-09-02T06:59:17.799Z,75.34
2022-09-02T07:01:44.717Z,75.52
2022-09-02T07:04:29.969Z,75.15
2022-09-02T07:06:56.888Z,75.72
2022-09-02T07:09:33.209Z,75.57
2022-09-02T07:12:05.014Z,75.55
2022-09-02T07:14:35.895Z,75.60
2022-09-02T07:17:02.478Z,75.46
2022-09-02T07:19:29.087Z,74.73
2022-09-02T07:21:55.687Z,74.46
2022-09-02T07:24:22.560Z,74.25
2022-09-02T07:26:50.028Z,74.31
2022-09-02T07:29:22.274Z,73.82
2022-09-02T07:31:49.176Z,73.77
2022-09-02T07:34:16.532Z,73.69
2022-09-02T07:36:45.608Z,73.92
2022-09-02T07:39:14.305Z,73.97
2022-09-02T07:41:42.530Z,74.00
2022-09-02T07:44:10.063Z,73.51
2022-09-02T07:46:36.990Z,72.61
2022-09-02T07:49:09.301Z,72.80
2022-09-02T07:51:39.031Z,72.45
2022-09-02T07:54:08.166Z,71.57
2022-09-02T07:56:35.258Z,70.38
2022-09-02T07:59:03.030Z,69.03
2022-09-02T08:01:29.843Z,67.45
2022-09-02T08:03:57.932Z,66.35
2022-09-02T08:06:27.798Z,66.04
2022-09-02T08:09:01.853Z,65.38
2022-09-02T08:11:29.108Z,64.71
2022-09-02T08:13:55.694Z,65.14
2022-09-02T08:16:22.631Z,66.17
2022-09-02T08:18:49.277Z,66.55
2022-09-02T08:21:15.775Z,65.75
2022-09-02T08:23:42.615Z,65.10
2022-09-02T08:26:11.209Z,64.36
2022-09-02T08:28:37.756Z,67.27
2022-09-02T08:31:08.208Z,67.96
2022-09-02T08:33:35.717Z,69.37
2022-09-02T08:38:29.878Z,69.41
2022-09-02T08:40:56.636Z,69.90
2022-09-02T08:43:58.245Z,69.95
2022-09-02T08:46:27.461Z,69.49
2022-09-02T08:49:00.033Z,70.94
2022-09-02T08:51:33.752Z,69.65
2022-09-02T08:54:12.844Z,68.22
2022-09-02T08:56:40.110Z,68.55
2022-09-02T08:59:07.175Z,68.15
2022-09-02T09:01:47.818Z,69.35
2022-09-02T09:04:46.883Z,71.14
2022-09-02T09:07:34.362Z,70.55
2022-09-02T09:10:16.397Z,69.63
2022-09-02T09:12:42.951Z,69.93
2022-09-02T09:15:19.466Z,71.02
2022-09-02T09:17:54.249Z,72.63
2022-09-02T09:20:25.355Z,72.19
2022-09-02T09:22:59.205Z,71.33
2022-09-02T09:25:31.053Z,70.36
2022-09-02T09:28:01.862Z,69.54
2022-09-02T09:30:29.780Z,69.68
2022-09-02T09:33:00.134Z,67.81
2022-09-02T09:35:46.482Z,66.20
2022-09-02T09:38:14.180Z,66.17
2022-09-02T09:40:41.160Z,66.48
2022-09-02T09:43:14.523Z,66.28
2022-09-02T09:45:51.534Z,65.89
2022-09-02T09:48:23.314Z,64.41
2022-09-02T09:51:11.295Z,63.65
2022-09-02T09:53:39.050Z,64.33
2022-09-02T09:56:22.799Z,64.35
2022-09-02T09:58:50.470Z,64.19
2022-09-02T10:01:19.969Z,62.80
2022-09-02T10:03:57.193Z,61.71
2022-09-02T10:06:36.378Z,59.91
2022-09-02T10:09:25.516Z,62.16
2022-09-02T10:12:00.758Z,62.53
2022-09-02T10:14:36.847Z,62.11
2022-09-02T10:17:22.166Z,59.97
2022-09-02T10:20:11.994Z,59.14
2022-09-02T10:22:58.813Z,58.21
2022-09-02T10:25:34.014Z,57.30
2022-09-02T10:28:28.078Z,57.66
2022-09-02T10:31:25.910Z,57.71
2022-09-02T10:34:10.616Z,56.57
2022-09-02T10:37:05.314Z,56.27
2022-09-02T10:39:56.948Z,56.40
2022-09-02T10:43:04.513Z,55.47
2022-09-02T10:45:43.993Z,54.42
2022-09-02T10:48:35.684Z,53.77
2022-09-02T10:51:27.604Z,52.90
2022-09-02T10:54:18.883Z,52.12
2022-09-02T10:56:57.530Z,51.97
2022-09-02T10:59:31.893Z,51.02
2022-09-02T11:02:15.025Z,51.17
2022-09-02T11:04:50.971Z,50.53
2022-09-02T11:07:28.384Z,50.32
2022-09-02T11:10:03.762Z,48.51
2022-09-02T11:12:38.373Z,48.16
2022-09-02T11:15:27.125Z,47.08
2022-09-02T11:18:07.555Z,46.88
2022-09-02T11:20:44.427Z,47.68
2022-09-02T11:23:24.423Z,46.77
2022-09-02T11:25:51.146Z,45.95
2022-09-02T11:28:46.643Z,46.43
2022-09-02T11:31:22.645Z,46.95
2022-09-02T11:36:40.297Z,45.97
2022-09-02T11:39:36.574Z,44.90
2022-09-02T11:42:27.902Z,44.37
2022-09-02T11:45:22.525Z,45.32
2022-09-02T11:48:04.853Z,44.94
2022-09-02T11:50:39.630Z,45.81
2022-09-02T11:53:25.183Z,47.15
2022-09-02T11:55:59.768Z,47.12
2022-09-02T11:58:37.344Z,46.26
2022-09-02T12:01:25.644Z,44.81
2022-09-02T12:04:48.483Z,42.78
2022-09-02T12:07:26.631Z,43.24
2022-09-02T12:10:00.462Z,42.49
2022-09-02T12:12:39.787Z,42.45
2022-09-02T12:15:06.881Z,41.43
2022-09-02T12:17:40.120Z,40.85
2022-09-02T12:20:42.013Z,45.41
2022-09-02T12:23:10.801Z,47.33
2022-09-02T12:25:46.092Z,47.65
2022-09-02T12:28:26.078Z,47.31
2022-09-02T12:31:01.693Z,46.50
2022-09-02T12:33:34.398Z,45.47
2022-09-02T12:36:05.001Z,45.97
2022-09-02T12:38:40.210Z,46.61
2022-09-02T12:41:13.461Z,48.43
2022-09-02T12:43:44.671Z,48.45
2022-09-02T12:46:31.784Z,48.79
2022-09-02T12:49:14.491Z,48.75
2022-09-02T12:51:55.100Z,49.66
2022-09-02T12:54:49.765Z,48.64
2022-09-02T12:57:18.667Z,47.91
2022-09-02T12:59:47.566Z,47.84
2022-09-02T13:03:10.278Z,46.13
2022-09-02T13:05:58.453Z,45.62
2022-09-02T13:09:01.746Z,46.55
2022-09-02T13:11:56.701Z,47.36
2022-09-02T13:14:54.845Z,47.82
2022-09-02T13:17:37.067Z,49.09
2022-09-02T13:20:37.977Z,49.64
2022-09-02T13:23:38.740Z,49.68
2022-09-02T13:26:48.363Z,50.86
2022-09-02T13:29:44.397Z,51.08
2022-09-02T13:32:16.726Z,51.17
2022-09-02T13:34:45.892Z,51.16
2022-09-02T13:37:37.115Z,51.20
2022-09-02T13:40:25.698Z,51.49
2022-09-02T13:42:54.856Z,51.50
2022-09-02T13:45:24.328Z,52.04
2022-09-02T13:47:57.223Z,51.43
2022-09-02T13:50:27.650Z,50.68
2022-09-02T13:55:58.441Z,50.56
2022-09-02T13:58:31.299Z,50.81
2022-09-02T14:01:17.078Z,50.33
2022-09-02T14:03:50.275Z,48.19
2022-09-02T14:06:20.698Z,47.53
2022-09-02T14:08:54.646Z,48.93
2022-09-02T14:11:21.654Z,49.86
2022-09-02T14:13:50.399Z,49.70
2022-09-02T14:16:35.090Z,50.73
2022-09-02T14:19:15.181Z,50.31
2022-09-02T14:21:49.398Z,50.84
2022-09-02T14:24:21.192Z,49.97
2022-09-02T14:26:50.520Z,48.67
2022-09-02T14:29:18.954Z,48.39
2022-09-02T14:31:46.723Z,48.61
2022-09-02T14:34:33.923Z,48.72
2022-09-02T14:37:01.217Z,49.89
2022-09-02T14:39:27.858Z,51.04
2022-09-02T14:41:56.100Z,51.94
2022-09-02T14:44:35.826Z,53.30
2022-09-02T14:47:06.261Z,51.84
2022-09-02T14:49:41.787Z,50.79
2022-09-02T14:52:28.816Z,48.83
2022-09-02T14:54:57.979Z,47.01
2022-09-02T14:57:32.623Z,47.54
2022-09-02T15:00:05.389Z,46.71
2022-09-02T15:02:34.153Z,44.85
2022-09-02T15:05:03.411Z,45.77
2022-09-02T15:07:30.575Z,40.61
2022-09-02T15:09:57.191Z,35.28
2022-09-02T15:12:46.780Z,42.06
2022-09-02T15:15:13.404Z,44.21
2022-09-02T15:17:39.927Z,45.36
2022-09-02T15:20:08.535Z,46.22
2022-09-02T15:22:38.556Z,46.72
2022-09-02T15:25:08.014Z,47.41
2022-09-02T15:27:35.503Z,48.09
2022-09-02T15:30:02.052Z,48.32
2022-09-02T15:32:28.572Z,48.70
2022-09-02T15:34:55.081Z,49.07
2022-09-02T15:37:21.588Z,49.81
2022-09-02T15:39:50.341Z,50.45
2022-09-02T15:42:18.336Z,51.38
2022-09-02T15:44:45.562Z,51.42
2022-09-02T15:47:12.072Z,52.37
2022-09-02T15:49:38.614Z,51.83
2022-09-02T15:52:06.030Z,51.75
2022-09-02T15:54:32.583Z,51.35
2022-09-02T15:56:59.762Z,51.95
2022-09-02T15:59:27.437Z,51.86
2022-09-02T16:01:56.506Z,52.35
2022-09-02T16:04:23.508Z,51.82
2022-09-02T16:06:54.813Z,52.04
2022-09-02T16:09:21.477Z,52.82
2022-09-02T16:11:50.713Z,53.10
2022-09-02T16:14:20.913Z,52.99
2022-09-02T16:16:49.274Z,52.21
2022-09-02T16:19:16.246Z,52.08
2022-09-02T16:21:42.849Z,52.33
2022-09-02T16:24:09.517Z,53.31
2022-09-02T16:26:38.585Z,53.88
2022-09-02T16:29:07.757Z,53.09
2022-09-02T16:31:38.407Z,53.39
2022-09-02T16:34:07.262Z,53.07
2022-09-02T16:36:36.653Z,53.73
2022-09-02T16:39:05.261Z,54.86
2022-09-02T16:41:37.668Z,54.07
2022-09-02T16:44:07.138Z,53.91
2022-09-02T16:46:35.945Z,55.28
2022-09-02T16:49:03.507Z,54.54
2022-09-02T16:51:33.419Z,54.92
2022-09-02T16:54:02.332Z,56.52
2022-09-02T16:56:30.623Z,58.82
2022-09-02T16:59:01.858Z,58.48
2022-09-02T17:01:32.326Z,59.32
2022-09-02T17:04:00.322Z,59.30
2022-09-02T17:06:28.000Z,59.33
2022-09-02T17:08:54.633Z,59.57
2022-09-02T17:11:23.818Z,59.74
2022-09-02T17:13:56.226Z,59.43
2022-09-02T17:16:25.614Z,56.88
2022-09-02T17:18:53.827Z,57.51
2022-09-02T17:21:47.854Z,55.82
2022-09-02T17:24:15.617Z,55.85
2022-09-02T17:26:46.709Z,56.27
2022-09-02T17:29:47.080Z,55.96
2022-09-02T17:32:06.233Z,55.53
2022-09-02T17:34:33.842Z,55.90
2022-09-02T17:37:00.451Z,56.06
2022-09-02T17:39:27.088Z,56.85
2022-09-02T17:42:00.026Z,56.13
2022-09-02T17:44:35.927Z,56.16
2022-09-02T17:47:18.687Z,55.88
2022-09-02T17:49:45.583Z,55.85
2022-09-02T17:52:15.378Z,56.16
2022-09-02T17:54:42.764Z,55.90
2022-09-02T17:57:48.410Z,56.31
2022-09-02T18:00:22.544Z,56.23
2022-09-02T18:03:31.168Z,56.56
2022-09-02T18:06:07.209Z,56.30
2022-09-02T18:08:54.780Z,56.08
2022-09-02T18:11:22.476Z,57.41
2022-09-02T18:13:55.245Z,57.16
2022-09-02T18:16:39.823Z,57.69
2022-09-02T18:19:37.549Z,57.77
2022-09-02T18:22:10.384Z,58.17
2022-09-02T18:24:48.387Z,57.78
2022-09-02T18:27:30.459Z,58.01
2022-09-02T18:30:12.033Z,57.88
2022-09-02T18:32:51.933Z,57.83
2022-09-02T18:35:29.286Z,58.37
2022-09-02T18:38:18.147Z,58.22
2022-09-02T18:40:57.010Z,58.25
2022-09-02T18:43:42.495Z,58.85
2022-09-02T18:46:12.049Z,58.81
2022-09-02T18:48:39.357Z,59.18
2022-09-02T18:51:16.448Z,59.01
2022-09-02T18:53:48.694Z,58.92
2022-09-02T18:56:18.247Z,58.96
2022-09-02T18:58:56.415Z,59.01
2022-09-02T19:01:27.277Z,58.82
2022-09-02T19:03:53.874Z,58.67
2022-09-02T19:06:23.620Z,58.37
2022-09-02T19:08:58.576Z,58.39
2022-09-02T19:11:25.889Z,58.69
2022-09-02T19:14:00.870Z,58.54
2022-09-02T19:16:32.024Z,58.46
2022-09-02T19:18:58.899Z,58.63
2022-09-02T19:21:47.303Z,59.21
2022-09-02T19:24:21.370Z,58.67
2022-09-02T19:26:49.010Z,59.27
2022-09-02T19:29:17.561Z,59.25
2022-09-02T19:31:46.669Z,59.33
2022-09-02T19:34:16.321Z,58.83
2022-09-02T19:36:47.009Z,59.38
2022-09-02T19:39:13.555Z,59.35
2022-09-02T19:41:40.505Z,59.55
2022-09-02T19:44:07.001Z,59.58
2022-09-02T19:47:15.298Z,59.71
2022-09-02T19:49:20.383Z,59.82
2022-09-02T19:51:47.538Z,59.81
2022-09-02T19:54:15.225Z,59.59
2022-09-02T19:56:42.649Z,60.00
2022-09-02T19:59:10.394Z,59.99
2022-09-02T20:01:38.291Z,60.36
2022-09-02T20:04:06.261Z,60.68
2022-09-02T20:06:33.111Z,60.16
2022-09-02T20:08:59.672Z,60.17
2022-09-02T20:11:27.618Z,60.69
2022-09-02T20:13:54.202Z,60.50
2022-09-02T20:16:23.763Z,61.00
2022-09-02T20:18:53.079Z,61.01
2022-09-02T20:21:43.214Z,61.27
2022-09-02T20:24:12.405Z,61.18
2022-09-02T20:26:51.983Z,61.78
2022-09-02T20:29:40.021Z,61.89
2022-09-02T20:32:34.042Z,61.71
2022-09-02T20:35:11.558Z,62.07
2022-09-02T20:38:07.415Z,62.42
2022-09-02T20:40:45.899Z,62.63
2022-09-02T20:43:35.125Z,63.23
2022-09-02T20:46:13.820Z,63.30
2022-09-02T20:48:46.614Z,63.68
2022-09-02T20:51:29.942Z,64.09
2022-09-02T20:54:11.119Z,64.57
2022-09-02T20:57:00.876Z,64.85
2022-09-02T21:00:02.327Z,64.69
2022-09-02T21:02:33.492Z,64.99
2022-09-02T21:05:22.565Z,65.28
2022-09-02T21:07:56.972Z,65.84
2022-09-02T21:10:47.747Z,65.83
2022-09-02T21:13:14.201Z,65.97
2022-09-02T21:15:54.990Z,67.01
2022-09-02T21:18:48.807Z,67.05
2022-09-02T21:21:35.253Z,67.96
2022-09-02T21:24:05.269Z,68.70
2022-09-02T21:26:58.433Z,68.97
2022-09-02T21:29:37.779Z,69.27
2022-09-02T21:32:19.403Z,69.23
2022-09-02T21:34:55.641Z,69.83
2022-09-02T21:37:23.202Z,70.27
2022-09-02T21:39:55.647Z,70.71
2022-09-02T21:42:32.358Z,70.89
2022-09-02T21:45:10.862Z,70.90
2022-09-02T21:47:57.362Z,71.32
2022-09-02T21:50:28.946Z,71.55
2022-09-02T21:53:01.225Z,72.19
2022-09-02T21:55:46.259Z,72.49
2022-09-02T21:58:18.783Z,72.81
2022-09-02T22:01:13.771Z,72.84
2022-09-02T22:03:48.030Z,72.85
2022-09-02T22:06:33.155Z,73.32
2022-09-02T22:09:14.234Z,73.20
2022-09-02T22:12:14.770Z,73.39
2022-09-02T22:15:07.842Z,72.96
2022-09-02T22:17:51.290Z,72.88
2022-09-02T22:20:22.241Z,72.68
2022-09-02T22:22:55.832Z,72.92
2022-09-02T22:25:24.533Z,73.00
2022-09-02T22:27:57.250Z,73.19
2022-09-02T22:30:23.789Z,73.52
2022-09-02T22:32:57.058Z,73.52
2022-09-02T22:35:27.806Z,73.66
2022-09-02T22:38:10.646Z,73.63
2022-09-02T22:40:46.210Z,73.95
2022-09-02T22:43:18.633Z,74.19
2022-09-02T22:46:12.543Z,74.14
2022-09-02T22:49:11.846Z,74.40
2022-09-02T22:52:09.093Z,74.52
2022-09-02T22:54:35.789Z,74.77
2022-09-02T22:57:02.229Z,75.17
2022-09-02T22:59:51.491Z,75.46
2022-09-02T23:02:27.973Z,75.53
2022-09-02T23:05:30.942Z,76.16
2022-09-02T23:07:57.430Z,76.12
2022-09-02T23:10:26.970Z,76.79
2022-09-02T23:13:36.233Z,76.36
2022-09-02T23:16:27.328Z,76.74
2022-09-02T23:19:16.454Z,76.35
2022-09-02T23:21:54.367Z,76.71
2022-09-02T23:24:45.103Z,76.18
2022-09-02T23:27:11.631Z,76.98
2022-09-02T23:29:41.323Z,76.99
2022-09-02T23:32:29.501Z,76.92
2022-09-02T23:35:09.251Z,77.43
2022-09-02T23:38:16.173Z,77.65
2022-09-02T23:40:45.821Z,77.72
2022-09-02T23:43:18.418Z,77.75
2022-09-02T23:45:47.412Z,77.63
2022-09-02T23:48:13.936Z,77.53
2022-09-02T23:51:10.444Z,77.89
2022-09-02T23:53:49.570Z,77.73
2022-09-02T23:56:37.887Z,77.62
2022-09-02T23:59:05.224Z,77.93
